Flight Track Log - Related Links

Times and Time Zones

All times are in EDT time to prevent confusion due to time zone crossing. See the LXJ342 flight status page for this flight to view local times or setup timezone preferences in your user account.

Time Position Orientation Groundspeed Altitude Reporting Facility
EDT Latitude Longitude Course Direction KTS MPH feet Rate Location/Type
Sat 09:09:16 AM 43.8167 -87.8167 63° Northeast 243 280 2,600  Level KMKE
Sat 09:10:29 AM 43.8486 -87.7292 63° Northeast 228 262 4,800 2,382 Climbing Chicago Center
Sat 09:11:27 AM 43.8833 -87.6378 62° Northeast 265 305 7,800 2,750 Climbing Minneapolis Center
Sat 09:12:29 AM 43.9206 -87.5406 62° Northeast 284 327 10,300 2,341 Climbing Minneapolis Center
Sat 09:13:30 AM 43.9617 -87.4353 61° Northeast 306 352 12,600 2,115 Climbing Minneapolis Center
Sat 09:14:31 AM 44.0056 -87.3242 61° Northeast 326 375 14,600 1,869 Climbing Minneapolis Center
Sat 09:15:32 AM 44.0458 -87.2211 61° Northeast 334 384 16,400 2,049 Climbing Minneapolis Center
Sat 09:16:34 AM 44.0992 -87.0814 62° Northeast 341 392 18,800 2,049 Climbing Minneapolis Center
Sat 09:17:35 AM 44.1453 -86.9608 62° Northeast 350 403 20,600 1,525 Climbing Minneapolis Center
Sat 09:18:36 AM 44.1864 -86.8517 62° Northeast 364 419 21,900 1,475 Climbing Minneapolis Center
Sat 09:19:37 AM 44.2450 -86.6950 62° Northeast 379 436 23,600 1,561 Climbing Minneapolis Center
Sat 09:20:39 AM 44.2950 -86.5617 62° Northeast 388 447 25,100 1,463 Climbing Minneapolis Center
Sat 09:21:40 AM 44.3461 -86.4269 62° Northeast 394 453 26,600 1,328 Climbing Minneapolis Center
Sat 09:22:41 AM 44.3961 -86.2914 63° Northeast 394 453 27,800 829 Climbing Minneapolis Center
Sat 09:23:43 AM 44.4533 -86.1539 60° Northeast 411 473 28,300 537 Climbing Minneapolis Center
Sat 09:24:44 AM 44.5250 -86.0206 53° Northeast 430 495 28,900 787 Climbing Minneapolis Center
Sat 09:25:45 AM 44.5961 -85.8850 54° Northeast 437 503 29,900 976 Climbing Minneapolis Center
Sat 09:26:47 AM 44.6722 -85.7492 52° Northeast 443 510 30,900 829 Climbing Minneapolis Center
Sat 09:27:48 AM 44.7572 -85.5847 54° Northeast 444 511 31,600 537 Climbing Minneapolis Center
Sat 09:29:01 AM 44.8331 -85.4425 53° Northeast 454 522 32,100 489 Climbing Minneapolis Center
Sat 09:30:03 AM 44.9261 -85.2694 53° Northeast 464 534 32,700 634 Climbing Minneapolis Center
Sat 09:31:04 AM 44.9889 -85.1536 53° Northeast 466 536 33,400 878 Climbing Minneapolis Center
Sat 09:32:06 AM 45.0764 -84.9786 55° Northeast 457 526 34,500 927 Climbing Minneapolis Center
Sat 09:33:07 AM 45.1500 -84.8372 54° Northeast 450 518 35,300 639 Climbing Minneapolis Center
Sat 09:34:08 AM 45.2386 -84.6722 53° Northeast 442 509 35,800 439 Climbing Minneapolis Center
Sat 09:35:10 AM 45.3136 -84.5347 52° Northeast 441 507 36,200 341 Climbing Minneapolis Center
Sat 09:36:11 AM 45.3878 -84.3969 52° Northeast 441 507 36,500 344 Climbing Minneapolis Center
Sat 09:37:12 AM 45.4617 -84.2572 53° Northeast 442 509 36,900 244 Climbing Minneapolis Center
Sat 09:38:14 AM 45.5356 -84.1164 53° Northeast 443 510 37,000 49 Climbing Minneapolis Center
Sat 09:39:15 AM 45.6100 -83.9742 53° Northeast 447 514 37,000  Level Minneapolis Center
Sat 09:40:17 AM 45.6872 -83.8272 53° Northeast 456 525 37,000  Level Minneapolis Center
Sat 09:41:18 AM 45.7681 -83.6858 51° Northeast 461 531 37,000  Level Minneapolis Center
Sat 09:42:29 AM 45.9000 -83.5167 42° Northeast 460 529 37,000  Level Toronto Center
Sat 09:43:29 AM 45.9833 -83.4000 44° Northeast 470 541 37,000  Level Toronto Center
Sat 09:44:29 AM 46.0833 -83.2833 39° Northeast 470 541 37,000  Level Toronto Center
Sat 09:45:29 AM 46.2000 -83.1667 35° Northeast 470 541 37,000  Level Toronto Center
Sat 09:46:29 AM 46.3000 -83.0333 43° Northeast 480 552 37,000  Level Toronto Center
Sat 09:47:29 AM 46.3667 -82.9000 54° Northeast 480 552 37,000  Level Toronto Center
Sat 09:48:29 AM 46.4500 -82.7333 54° Northeast 480 552 37,000  Level Toronto Center
Sat 09:49:29 AM 46.5500 -82.5833 46° Northeast 480 552 37,000  Level Toronto Center
Sat 09:50:29 AM 46.6333 -82.4167 54° Northeast 480 552 37,000  Level Toronto Center
Sat 09:51:29 AM 46.7000 -82.2833 54° Northeast 480 552 37,000  Level Toronto Center
Sat 09:52:29 AM 46.7833 -82.1167 54° Northeast 480 552 37,000  Level Toronto Center
Sat 09:54:29 AM 46.9667 -81.8000 50° Northeast 480 552 37,000  Level Toronto Center
Sat 09:55:29 AM 47.0333 -81.6667 54° Northeast 480 552 37,000  Level Toronto Center
Sat 09:56:29 AM 47.1167 -81.5000 54° Northeast 480 552 37,000  Level Toronto Center
Sat 09:57:29 AM 47.2000 -81.3167 56° Northeast 490 564 37,000  Level Toronto Center
Sat 09:58:29 AM 47.2667 -81.1833 54° Northeast 490 564 37,000  Level Toronto Center
Sat 09:59:29 AM 47.3500 -81.0167 54° Northeast 490 564 37,000  Level Toronto Center
Sat 10:00:29 AM 47.4500 -80.8667 45° Northeast 490 564 37,000  Level Toronto Center
Sat 10:01:29 AM 47.5333 -80.7000 53° Northeast 490 564 37,000  Level Toronto Center
Sat 10:02:29 AM 47.6167 -80.5167 56° Northeast 490 564 37,000  Level Toronto Center
Sat 10:03:29 AM 47.7000 -80.3667 50° Northeast 490 564 37,000  Level Toronto Center
Sat 10:04:29 AM 47.7667 -80.2000 59° Northeast 490 564 37,000  Level Toronto Center
Sat 10:05:29 AM 47.8500 -80.0500 50° Northeast 490 564 37,000  Level Toronto Center
Sat 10:06:07 AM 47.9000 -79.9833 42° Northeast 490 564 37,000  Level Montreal Center
Sat 10:07:07 AM 47.9833 -79.8000 56° Northeast 480 552 37,000  Level Montreal Center
Sat 10:08:07 AM 48.0500 -79.6333 59° Northeast 480 552 37,000  Level Montreal Center
Sat 10:09:07 AM 48.1333 -79.4667 53° Northeast 480 552 37,000  Level Montreal Center
Sat 10:10:07 AM 48.2167 -79.3167 50° Northeast 490 564 37,000  Level Montreal Center
Sat 10:11:07 AM 48.3000 -79.1500 53° Northeast 490 564 37,000  Level Montreal Center
Sat 10:12:07 AM 48.3667 -78.9833 59° Northeast 490 564 37,000  Level Montreal Center
Sat 10:13:07 AM 48.4500 -78.8333 50° Northeast 490 564 37,000  Level Montreal Center
Sat 10:14:07 AM 48.5333 -78.6333 58° Northeast 490 564 37,000  Level Montreal Center
Sat 10:15:07 AM 48.6000 -78.4833 56° Northeast 490 564 37,000  Level Montreal Center
Sat 10:16:07 AM 48.6833 -78.3167 53° Northeast 480 552 37,000  Level Montreal Center
Sat 10:17:07 AM 48.7667 -78.1333 55° Northeast 490 564 37,000  Level Montreal Center
Sat 10:18:07 AM 48.8333 -77.9833 56° Northeast 490 564 37,000  Level Montreal Center
Sat 10:19:07 AM 48.9167 -77.8000 55° Northeast 480 552 37,000  Level Montreal Center
Sat 10:20:07 AM 48.9833 -77.6333 59° Northeast 480 552 37,000  Level Montreal Center
Sat 10:21:07 AM 49.0667 -77.4500 55° Northeast 490 564 37,000  Level Montreal Center
Sat 10:22:07 AM 49.1500 -77.2833 53° Northeast 490 564 37,000  Level Montreal Center
Sat 10:23:07 AM 49.2333 -77.1000 55° Northeast 490 564 37,000  Level Montreal Center
Sat 10:24:07 AM 49.3000 -76.9167 61° Northeast 490 564 37,000  Level Montreal Center
Sat 10:25:07 AM 49.3833 -76.7333 55° Northeast 500 575 37,000  Level Montreal Center
Sat 10:26:07 AM 49.4500 -76.5667 58° Northeast 500 575 37,000  Level Montreal Center
Sat 10:27:07 AM 49.5333 -76.3833 55° Northeast 500 575 37,000  Level Montreal Center
Sat 10:28:07 AM 49.6000 -76.2333 56° Northeast 510 587 37,000  Level Montreal Center
Sat 10:29:07 AM 49.6833 -76.0167 59° Northeast 500 575 37,000  Level Montreal Center
Sat 10:30:07 AM 49.7500 -75.8667 55° Northeast 500 575 37,000  Level Montreal Center
Sat 10:31:07 AM 49.8333 -75.6500 59° Northeast 500 575 37,000  Level Montreal Center
Sat 10:32:07 AM 49.9167 -75.5000 49° Northeast 500 575 37,000  Level Montreal Center
Sat 10:33:07 AM 49.9833 -75.2833 64° Northeast 500 575 37,000  Level Montreal Center
Sat 10:34:07 AM 50.0667 -75.1333 49° Northeast 500 575 37,000  Level Montreal Center
Sat 10:35:07 AM 50.1333 -74.9500 60° Northeast 500 575 37,000  Level Montreal Center
Sat 10:36:07 AM 50.2167 -74.7500 57° Northeast 500 575 37,000  Level Montreal Center
Sat 10:37:07 AM 50.2833 -74.5667 60° Northeast 500 575 37,000  Level Montreal Center
Sat 10:38:07 AM 50.3667 -74.3833 54° Northeast 500 575 37,000  Level Montreal Center
Sat 10:39:07 AM 50.4333 -74.2000 60° Northeast 490 564 37,000  Level Montreal Center
Sat 10:40:07 AM 50.5167 -74.0000 57° Northeast 490 564 37,000  Level Montreal Center
Sat 10:41:07 AM 50.5833 -73.8167 60° Northeast 490 564 37,000  Level Montreal Center
Sat 10:42:07 AM 50.6333 -73.6500 65° Northeast 480 552 37,000  Level Montreal Center
Sat 10:43:07 AM 50.7167 -73.4667 54° Northeast 490 564 37,000  Level Montreal Center
Sat 10:44:07 AM 50.7833 -73.2833 60° Northeast 490 564 37,000  Level Montreal Center
Sat 10:45:07 AM 50.8667 -73.0833 57° Northeast 490 564 37,000  Level Montreal Center
Sat 10:46:07 AM 50.9333 -72.9000 60° Northeast 490 564 37,000  Level Montreal Center
Sat 10:47:07 AM 51.0000 -72.7000 62° Northeast 490 564 37,000  Level Montreal Center
Sat 10:48:07 AM 51.0667 -72.5333 57° Northeast 490 564 37,000  Level Montreal Center
Sat 10:49:07 AM 51.1500 -72.3500 54° Northeast 490 564 37,000  Level Montreal Center
Sat 10:50:07 AM 51.2000 -72.1500 68° East 490 564 37,000  Level Montreal Center
Sat 10:51:07 AM 51.2833 -71.9500 56° Northeast 500 575 37,000  Level Montreal Center
Sat 10:52:07 AM 51.3500 -71.7667 60° Northeast 500 575 37,000  Level Montreal Center
Sat 10:53:07 AM 51.4167 -71.5667 62° Northeast 490 564 37,000  Level Montreal Center
Sat 10:54:07 AM 51.4833 -71.3667 62° Northeast 500 575 37,000  Level Montreal Center
Sat 10:55:07 AM 51.5500 -71.1667 62° Northeast 490 564 37,000  Level Montreal Center
Sat 10:56:07 AM 51.6167 -71.0000 57° Northeast 490 564 37,000  Level Montreal Center
Sat 10:57:07 AM 51.7000 -70.8000 56° Northeast 500 575 37,000  Level Montreal Center
Sat 10:58:07 AM 51.7667 -70.5833 63° Northeast 500 575 37,000  Level Montreal Center
Sat 10:59:07 AM 51.8167 -70.3833 68° East 500 575 37,000  Level Montreal Center
Sat 11:00:07 AM 51.9000 -70.2000 54° Northeast 500 575 37,000  Level Montreal Center
Sat 11:01:07 AM 51.9500 -70.0000 68° East 500 575 37,000  Level Montreal Center
Sat 11:02:07 AM 52.0333 -69.8000 56° Northeast 500 575 37,000  Level Montreal Center
Sat 11:03:07 AM 52.0833 -69.6000 68° East 500 575 37,000  Level Montreal Center
Sat 11:04:07 AM 52.1667 -69.4000 56° Northeast 500 575 37,000  Level Montreal Center
Sat 11:05:07 AM 52.2167 -69.2000 68° East 500 575 37,000  Level Montreal Center
Sat 11:06:07 AM 52.2833 -69.0000 61° Northeast 500 575 37,000  Level Montreal Center
Sat 11:07:07 AM 52.3500 -68.7833 63° Northeast 510 587 37,000  Level Montreal Center
Sat 11:08:07 AM 52.4167 -68.5833 61° Northeast 500 575 37,000  Level Montreal Center
Sat 11:09:07 AM 52.4833 -68.3833 61° Northeast 500 575 37,000  Level Montreal Center
Sat 11:10:07 AM 52.5500 -68.2000 59° Northeast 500 575 37,000  Level Montreal Center
Sat 11:11:07 AM 52.6167 -68.0000 61° Northeast 490 564 37,000  Level Montreal Center
Sat 11:12:07 AM 52.6833 -67.7833 63° Northeast 490 564 37,000  Level Montreal Center
Sat 11:13:07 AM 52.7500 -67.5833 61° Northeast 500 575 37,000  Level Montreal Center
Sat 11:14:07 AM 52.8167 -67.3667 63° Northeast 500 575 37,000  Level Montreal Center
Sat 11:15:07 AM 52.8833 -67.1833 59° Northeast 500 575 37,000  Level Montreal Center
Sat 11:16:07 AM 52.9500 -66.9833 61° Northeast 500 575 37,000  Level Montreal Center
Sat 11:17:07 AM 53.0167 -66.7667 63° Northeast 500 575 37,000  Level Montreal Center
Sat 11:18:07 AM 53.0833 -66.5500 63° Northeast 500 575 37,000  Level Montreal Center
Sat 11:19:07 AM 53.1333 -66.3500 67° East 510 587 37,000  Level Montreal Center
Sat 11:20:07 AM 53.2000 -66.1333 63° Northeast 500 575 37,000  Level Montreal Center
Sat 11:21:07 AM 53.2667 -65.9500 59° Northeast 510 587 37,000  Level Montreal Center
Sat 11:22:07 AM 53.3333 -65.7333 63° Northeast 510 587 37,000  Level Montreal Center
Sat 11:23:07 AM 53.4000 -65.4833 66° East 500 575 37,000  Level Montreal Center
Sat 11:24:07 AM 53.4500 -65.3000 65° Northeast 510 587 37,000  Level Montreal Center
Sat 11:25:07 AM 53.5333 -65.0500 61° Northeast 510 587 37,000  Level Montreal Center
Sat 11:26:07 AM 53.5833 -64.8667 65° Northeast 510 587 37,000  Level Montreal Center
Sat 11:27:07 AM 53.6500 -64.6167 66° East 510 587 37,000  Level Montreal Center
Sat 11:28:07 AM 53.7167 -64.4333 58° Northeast 510 587 37,000  Level Montreal Center
Sat 11:29:07 AM 53.7667 -64.2167 69° East 520 598 37,000  Level Montreal Center
Sat 11:30:07 AM 53.8333 -63.9667 66° East 520 598 37,000  Level Montreal Center
Sat 11:31:07 AM 53.9000 -63.7500 62° Northeast 520 598 37,000  Level Montreal Center
Sat 11:32:07 AM 53.9667 -63.5333 62° Northeast 520 598 37,000  Level Montreal Center
Sat 11:33:07 AM 54.0167 -63.3000 70° East 520 598 37,000  Level Montreal Center
Sat 11:34:07 AM 54.0833 -63.0833 62° Northeast 520 598 37,000  Level Montreal Center
Sat 11:35:07 AM 54.1500 -62.8667 62° Northeast 520 598 37,000  Level Montreal Center
Sat 11:36:07 AM 54.2000 -62.6000 72° East 520 598 37,000  Level Montreal Center
Sat 11:37:07 AM 54.2667 -62.3833 62° Northeast 520 598 37,000  Level Montreal Center
Sat 11:37:57 AM 54.3167 -62.2500 57° Northeast 520 598 37,000  Level Gander Center
Sat 11:38:35 AM 54.3500 -62.1167 67° East 520 598 37,000  Level Gander Center
Sat 11:39:35 AM 54.4167 -61.8500 67° East 520 598 37,000  Level Gander Center
Sat 11:40:35 AM 54.4667 -61.6500 67° East 530 610 37,000  Level Gander Center
Sat 11:41:35 AM 54.5167 -61.4000 71° East 530 610 37,000  Level Gander Center
Sat 11:42:35 AM 54.5833 -61.1667 64° Northeast 530 610 37,000  Level Gander Center
Sat 11:43:35 AM 54.6333 -60.9667 67° East 530 610 37,000  Level Gander Center
Sat 11:44:35 AM 54.7000 -60.7000 67° East 530 610 37,000  Level Gander Center
Sat 11:45:35 AM 54.7500 -60.4667 70° East 530 610 37,000  Level Gander Center
Sat 11:46:35 AM 54.8167 -60.2333 64° Northeast 530 610 37,000  Level Gander Center
Sat 11:48:07 AM 54.8833 -59.8167 74° East 530 610 37,000  Level Montreal Center
Sat 11:49:07 AM 54.9333 -59.5833 69° East 530 610 37,000  Level Montreal Center
Sat 11:50:07 AM 55.0000 -59.3500 63° Northeast 530 610 37,000  Level Montreal Center
Sat 11:51:07 AM 55.0500 -59.1167 69° East 530 610 37,000  Level Montreal Center
Sat 11:52:07 AM 55.1000 -58.8833 69° East 530 610 37,000  Level Montreal Center
Sat 11:53:07 AM 55.1667 -58.6167 66° East 530 610 37,000  Level Montreal Center
Sat 11:53:57 AM 55.2000 -58.4667 69° East 530 610 37,000  Level Gander Center
Sat 11:54:35 AM 55.2333 -58.3167 69° East 530 610 37,000  Level Gander Center
Sat 11:55:35 AM 55.2833 -58.0833 69° East 530 610 37,000  Level Gander Center
Sat 11:56:35 AM 55.3333 -57.8500 69° East 530 610 37,000  Level Gander Center
Sat 11:57:35 AM 55.3833 -57.6000 71° East 530 610 37,000  Level Gander Center
Sat 11:58:35 AM 55.4333 -57.3333 72° East 530 610 37,000  Level Gander Center
Sat 11:59:35 AM 55.4833 -57.1167 68° East 530 610 37,000  Level Gander Center
Sat 12:00:35 PM 55.5333 -56.8500 72° East 530 610 37,000  Level Gander Center
Sat 12:01:00 PM 55.5167 -57.0167 66° East 535 616 37,000  Level ETMS Enhanced Traffic Management System
Sat 12:01:35 PM 55.6000 -56.6333 66° East 530 610 37,000  Level Gander Center
Sat 12:02:35 PM 55.6500 -56.3667 72° East 530 610 37,000  Level Gander Center
Sat 12:03:35 PM 55.7167 -56.1500 61° Northeast 530 610 37,000  Level Gander Center
Sat 12:04:35 PM 55.7667 -55.9000 70° East 530 610 37,000  Level Gander Center
Sat 12:05:35 PM 55.8333 -55.6667 63° Northeast 530 610 37,000  Level Gander Center
Sat 12:06:35 PM 55.8833 -55.4500 68° East 530 610 37,000  Level Gander Center
Sat 12:07:35 PM 55.9333 -55.1667 72° East 540 621 37,000  Level Gander Center
Sat 12:08:35 PM 56.0000 -54.8833 67° East 530 610 37,000  Level Gander Center
Sat 12:09:35 PM 56.0500 -54.6667 67° East 540 621 37,000  Level Gander Center
Sat 12:10:35 PM 56.1000 -54.4500 67° East 540 621 37,000  Level Gander Center
Sat 12:11:35 PM 56.1500 -54.1667 72° East 550 633 37,000  Level Gander Center
Sat 12:12:35 PM 56.2000 -53.9167 70° East 530 610 37,000  Level Gander Center
Sat 12:13:35 PM 56.2833 -53.7000 55° Northeast 530 610 37,000  Level Gander Center
Sat 12:14:35 PM 56.3333 -53.4500 70° East 530 610 37,000  Level Gander Center
Sat 12:15:35 PM 56.3833 -53.1667 72° East 550 633 37,000 100 Level Gander Center
Sat 12:16:35 PM 56.4333 -52.9000 71° East 550 633 37,200 350 Climbing Gander Center
Sat 12:17:35 PM 56.4833 -52.6500 70° East 540 621 37,700 500 Climbing Gander Center
Sat 12:18:35 PM 56.5333 -52.4333 67° East 530 610 38,200 500 Climbing Gander Center
Sat 12:19:35 PM 56.5833 -52.1667 71° East 530 610 38,700 400 Climbing Gander Center
Sat 12:20:35 PM 56.6333 -51.9833 64° Northeast 530 610 39,000 32 Climbing Gander Center
Sat 12:22:00 PM 56.6814 -51.7350 71° East  Level FlightAware Approximate
Sat 12:29:00 PM 56.9889 -50.0632 71° East  Level FlightAware Approximate
Sat 12:29:00 PM 57.0000 -50.0000 65° Northeast 535 616 39,000  Level ETMS Enhanced Traffic Management System
Sat 12:30:00 PM 57.0408 -49.8287 66° East  Level FlightAware Approximate
Sat 12:31:00 PM 57.0957 -49.5961 66° East  Level FlightAware Approximate
Sat 12:32:00 PM 57.1502 -49.3629 67° East  Level FlightAware Approximate
Sat 12:33:00 PM 57.2042 -49.1289 67° East  Level FlightAware Approximate
Sat 12:34:00 PM 57.2578 -48.8943 67° East  Level FlightAware Approximate
Sat 12:35:00 PM 57.4262 -48.2437 67° East 535 616 39,000  Level FlightAware Transoceanic
Sat 12:36:00 PM 57.4850 -47.9895 67° East 535 616 39,000  Level FlightAware Transoceanic
Sat 12:37:00 PM 57.5434 -47.7345 67° East 535 616 39,000  Level FlightAware Transoceanic
Sat 12:38:00 PM 57.6012 -47.4786 67° East 535 616 39,000  Level FlightAware Transoceanic
Sat 12:39:00 PM 57.6585 -47.2220 67° East 535 616 39,000  Level FlightAware Transoceanic
Sat 12:40:00 PM 57.7153 -46.9645 68° East 535 616 39,000  Level FlightAware Transoceanic
Sat 12:41:00 PM 57.7716 -46.7063 68° East 535 616 39,000  Level FlightAware Transoceanic
Sat 12:42:00 PM 57.8273 -46.4472 68° East 535 616 39,000  Level FlightAware Transoceanic
Sat 12:43:00 PM 57.8825 -46.1874 68° East 535 616 39,000  Level FlightAware Transoceanic
Sat 12:44:00 PM 57.9372 -45.9267 69° East 535 616 39,000  Level FlightAware Transoceanic
Sat 12:45:00 PM 57.9913 -45.6653 69° East 535 616 39,000  Level FlightAware Transoceanic
Sat 12:46:00 PM 58.0449 -45.4030 69° East 535 616 39,000  Level FlightAware Transoceanic
Sat 12:47:00 PM 58.0980 -45.1400 69° East 535 616 39,000  Level FlightAware Transoceanic
Sat 12:48:00 PM 58.1505 -44.8762 69° East 535 616 39,000  Level FlightAware Transoceanic
Sat 12:49:00 PM 58.2025 -44.6117 70° East 535 616 39,000  Level FlightAware Transoceanic
Sat 12:50:00 PM 58.2539 -44.3463 70° East 535 616 39,000  Level FlightAware Transoceanic
Sat 12:51:00 PM 58.3048 -44.0802 70° East 535 616 39,000  Level FlightAware Transoceanic
Sat 12:52:00 PM 58.3551 -43.8133 70° East 535 616 39,000  Level FlightAware Transoceanic
Sat 12:53:00 PM 58.4049 -43.5457 71° East 535 616 39,000  Level FlightAware Transoceanic
Sat 12:54:00 PM 58.4541 -43.2773 71° East 535 616 39,000  Level FlightAware Transoceanic
Sat 12:55:00 PM 58.5028 -43.0082 71° East 535 616 39,000  Level FlightAware Transoceanic
Sat 12:56:00 PM 58.5508 -42.7383 71° East 535 616 39,000  Level FlightAware Transoceanic
Sat 12:57:00 PM 58.5983 -42.4677 72° East 535 616 39,000  Level FlightAware Transoceanic
Sat 12:58:00 PM 58.6453 -42.1964 72° East 535 616 39,000  Level FlightAware Transoceanic
Sat 12:59:00 PM 58.6917 -41.9243 72° East 535 616 39,000  Level FlightAware Transoceanic
Sat 01:00:00 PM 58.7374 -41.6515 72° East 535 616 39,000  Level FlightAware Transoceanic
Sat 01:01:00 PM 58.7827 -41.3780 72° East 535 616 39,000  Level FlightAware Transoceanic
Sat 01:02:00 PM 58.8273 -41.1038 73° East 535 616 39,000  Level FlightAware Transoceanic
Sat 01:03:00 PM 58.8714 -40.8289 73° East 535 616 39,000  Level FlightAware Transoceanic
Sat 01:04:00 PM 58.9148 -40.5533 73° East 535 616 39,000  Level FlightAware Transoceanic
Sat 01:05:00 PM 58.9577 -40.2770 73° East 535 616 39,000  Level FlightAware Transoceanic
Sat 01:06:00 PM 58.9969 -40.0206 73° East  Level FlightAware Approximate
Sat 01:06:00 PM 59.0000 -40.0000 86° East 544 626 39,000  Level ETMS Enhanced Traffic Management System
Sat 01:07:00 PM 59.0356 -39.7636 74° East  Level FlightAware Approximate
Sat 01:08:00 PM 59.0085 -39.7758 86° East  Level FlightAware Approximate
Sat 01:09:00 PM 59.0180 -39.5088 86° East  Level FlightAware Approximate
Sat 01:10:00 PM 59.0271 -39.2416 86° East  Level FlightAware Approximate
Sat 01:11:00 PM 59.0355 -38.9742 86° East  Level FlightAware Approximate
Sat 01:12:00 PM 59.0630 -37.9448 87° East 544 626 39,000  Level FlightAware Transoceanic
Sat 01:13:00 PM 59.0693 -37.6506 88° East 544 626 39,000  Level FlightAware Transoceanic
Sat 01:14:00 PM 59.0750 -37.3564 88° East 544 626 39,000  Level FlightAware Transoceanic
Sat 01:15:00 PM 59.0800 -37.0620 88° East 544 626 39,000  Level FlightAware Transoceanic
Sat 01:16:00 PM 59.0843 -36.7676 88° East 544 626 39,000  Level FlightAware Transoceanic
Sat 01:17:00 PM 59.0880 -36.4731 89° East 544 626 39,000  Level FlightAware Transoceanic
Sat 01:18:00 PM 59.0910 -36.1786 89° East 544 626 39,000  Level FlightAware Transoceanic
Sat 01:19:00 PM 59.0933 -35.8839 89° East 544 626 39,000  Level FlightAware Transoceanic
Sat 01:20:00 PM 59.0950 -35.5893 89° East 544 626 39,000  Level FlightAware Transoceanic
Sat 01:21:00 PM 59.0960 -35.2947 90° East 544 626 39,000  Level FlightAware Transoceanic
Sat 01:22:00 PM 59.0964 -35.0000 90° East 544 626 39,000  Level FlightAware Transoceanic
Sat 01:23:00 PM 59.0960 -34.7053 90° East 544 626 39,000  Level FlightAware Transoceanic
Sat 01:24:00 PM 59.0950 -34.4107 91° East 544 626 39,000  Level FlightAware Transoceanic
Sat 01:25:00 PM 59.0933 -34.1161 91° East 544 626 39,000  Level FlightAware Transoceanic
Sat 01:26:00 PM 59.0910 -33.8214 91° East 544 626 39,000  Level FlightAware Transoceanic
Sat 01:27:00 PM 59.0880 -33.5269 91° East 544 626 39,000  Level FlightAware Transoceanic
Sat 01:28:00 PM 59.0843 -33.2324 92° East 544 626 39,000  Level FlightAware Transoceanic
Sat 01:29:00 PM 59.0800 -32.9380 92° East 544 626 39,000  Level FlightAware Transoceanic
Sat 01:30:00 PM 59.0750 -32.6436 92° East 544 626 39,000  Level FlightAware Transoceanic
Sat 01:31:00 PM 59.0693 -32.3494 92° East 544 626 39,000  Level FlightAware Transoceanic
Sat 01:32:00 PM 59.0630 -32.0552 93° East 544 626 39,000  Level FlightAware Transoceanic
Sat 01:33:00 PM 59.0560 -31.7612 93° East 544 626 39,000  Level FlightAware Transoceanic
Sat 01:34:00 PM 59.0483 -31.4673 93° East 544 626 39,000  Level FlightAware Transoceanic
Sat 01:35:00 PM 59.0400 -31.1735 93° East 544 626 39,000  Level FlightAware Transoceanic
Sat 01:36:00 PM 59.0310 -30.8799 94° East 544 626 39,000  Level FlightAware Transoceanic
Sat 01:37:00 PM 59.0213 -30.5864 94° East 544 626 39,000  Level FlightAware Transoceanic
Sat 01:38:00 PM 59.0110 -30.2931 94° East 544 626 39,000  Level FlightAware Transoceanic
Sat 01:39:00 PM 59.0010 -30.0261 94° East  Level FlightAware Approximate
Sat 01:40:00 PM 58.9905 -29.7593 94° East  Level FlightAware Approximate
Sat 01:40:55 PM 59.0000 -30.0000 106° East 550 633 39,000  Level ETMS Enhanced Traffic Management System
Sat 01:41:00 PM 58.9670 -29.7947 107° East  Level FlightAware Approximate
Sat 01:42:00 PM 58.9255 -29.5399 107° East  Level FlightAware Approximate
Sat 01:43:00 PM 58.8836 -29.2857 108° East  Level FlightAware Approximate
Sat 01:44:00 PM 58.8411 -29.0321 108° East  Level FlightAware Approximate
Sat 01:45:00 PM 58.7981 -28.7791 108° East  Level FlightAware Approximate
Sat 01:46:00 PM 58.7547 -28.5268 108° East  Level FlightAware Approximate
Sat 01:47:00 PM 58.5868 -27.4664 109° East 550 633 39,000  Level FlightAware Transoceanic
Sat 01:48:00 PM 58.5379 -27.1887 109° East 550 633 39,000  Level FlightAware Transoceanic
Sat 01:49:00 PM 58.4883 -26.9117 109° East 550 633 39,000  Level FlightAware Transoceanic
Sat 01:50:00 PM 58.4382 -26.6355 109° East 550 633 39,000  Level FlightAware Transoceanic
Sat 01:51:00 PM 58.3875 -26.3602 109° East 550 633 39,000  Level FlightAware Transoceanic
Sat 01:52:00 PM 58.3362 -26.0856 110° East 550 633 39,000  Level FlightAware Transoceanic
Sat 01:53:00 PM 58.2842 -25.8118 110° East 550 633 39,000  Level FlightAware Transoceanic
Sat 01:54:00 PM 58.2318 -25.5389 110° East 550 633 39,000  Level FlightAware Transoceanic
Sat 01:55:00 PM 58.1787 -25.2667 110° East 550 633 39,000  Level FlightAware Transoceanic
Sat 01:56:00 PM 58.1250 -24.9953 111° Southeast 550 633 39,000  Level FlightAware Transoceanic
Sat 01:57:00 PM 58.0708 -24.7248 111° Southeast 550 633 39,000  Level FlightAware Transoceanic
Sat 01:58:00 PM 58.0160 -24.4551 111° Southeast 550 633 39,000  Level FlightAware Transoceanic
Sat 01:59:00 PM 57.9607 -24.1862 111° Southeast 550 633 39,000  Level FlightAware Transoceanic
Sat 02:00:00 PM 57.9047 -23.9182 112° Southeast 550 633 39,000  Level FlightAware Transoceanic
Sat 02:01:00 PM 57.8483 -23.6510 112° Southeast 550 633 39,000  Level FlightAware Transoceanic
Sat 02:02:00 PM 57.7912 -23.3846 112° Southeast 550 633 39,000  Level FlightAware Transoceanic
Sat 02:03:00 PM 57.7336 -23.1191 112° Southeast 550 633 39,000  Level FlightAware Transoceanic
Sat 02:04:00 PM 57.6754 -22.8545 112° Southeast 550 633 39,000  Level FlightAware Transoceanic
Sat 02:05:00 PM 57.6167 -22.5907 113° Southeast 550 633 39,000  Level FlightAware Transoceanic
Sat 02:06:00 PM 57.5575 -22.3277 113° Southeast 550 633 39,000  Level FlightAware Transoceanic
Sat 02:07:00 PM 57.4977 -22.0656 113° Southeast 550 633 39,000  Level FlightAware Transoceanic
Sat 02:08:00 PM 57.4373 -21.8043 113° Southeast 550 633 39,000  Level FlightAware Transoceanic
Sat 02:09:00 PM 57.3764 -21.5440 114° Southeast 550 633 39,000  Level FlightAware Transoceanic
Sat 02:10:00 PM 57.3150 -21.2845 114° Southeast 550 633 39,000  Level FlightAware Transoceanic
Sat 02:11:00 PM 57.2531 -21.0258 114° Southeast 550 633 39,000  Level FlightAware Transoceanic
Sat 02:12:00 PM 57.1906 -20.7680 114° Southeast 550 633 39,000  Level FlightAware Transoceanic
Sat 02:13:00 PM 57.1276 -20.5112 114° Southeast 550 633 39,000  Level FlightAware Transoceanic
Sat 02:14:00 PM 57.0640 -20.2551 115° Southeast 550 633 39,000 -232 Level FlightAware Transoceanic
Sat 02:15:00 PM 57.0063 -20.0251 115° Southeast  Level FlightAware Approximate
Sat 02:16:00 PM 56.9482 -19.7958 115° Southeast  Level FlightAware Approximate
Sat 02:17:00 PM 56.9459 -19.8292 120° Southeast  Level FlightAware Approximate
Sat 02:18:00 PM 56.8762 -19.6113 120° Southeast  Level FlightAware Approximate
Sat 02:19:00 PM 56.8062 -19.3943 120° Southeast  Level FlightAware Approximate
Sat 02:20:00 PM 56.7358 -19.1780 121° Southeast  Level FlightAware Approximate
Sat 02:21:00 PM 56.6650 -18.9626 121° Southeast  Level FlightAware Approximate
Sat 02:22:00 PM 56.5948 -18.7469 120° Southeast  Level FlightAware Approximate
Sat 02:23:00 PM 56.5250 -18.5313 120° Southeast  Level FlightAware Approximate
Sat 02:24:00 PM 56.4548 -18.3164 121° Southeast  Level FlightAware Approximate
Sat 02:25:00 PM 56.3842 -18.1024 121° Southeast  Level FlightAware Approximate
Sat 02:26:00 PM 56.3133 -17.8891 121° Southeast  Level FlightAware Approximate
Sat 02:27:00 PM 56.2423 -17.6763 121° Southeast  Level FlightAware Approximate
Sat 02:28:00 PM 56.1714 -17.4638 121° Southeast  Level FlightAware Approximate
Sat 02:29:00 PM 56.1002 -17.2520 121° Southeast  Level FlightAware Approximate
Sat 02:30:00 PM 56.0286 -17.0410 121° Southeast  Level FlightAware Approximate
Sat 02:31:00 PM 55.9567 -16.8308 121° Southeast  Level FlightAware Approximate
Sat 02:32:00 PM 55.8844 -16.6214 122° Southeast  Level FlightAware Approximate
Sat 02:33:00 PM 55.8117 -16.4127 122° Southeast  Level FlightAware Approximate
Sat 02:34:00 PM 55.7387 -16.2049 122° Southeast  Level FlightAware Approximate
Sat 02:35:00 PM 55.6654 -15.9978 122° Southeast  Level FlightAware Approximate
Sat 02:36:00 PM 55.5917 -15.7915 122° Southeast  Level FlightAware Approximate
Sat 02:37:00 PM 55.5176 -15.5859 122° Southeast  Level FlightAware Approximate
Sat 02:38:00 PM 55.4419 -15.3827 123° Southeast  Level FlightAware Approximate
Sat 02:39:00 PM 55.3659 -15.1802 123° Southeast  Level FlightAware Approximate
Sat 02:40:00 PM 55.2895 -14.9785 124° Southeast  Level FlightAware Approximate
Sat 02:41:00 PM 55.2128 -14.7775 124° Southeast  Level FlightAware Approximate
Sat 02:42:00 PM 55.1358 -14.5774 124° Southeast  Level FlightAware Approximate
Sat 02:43:00 PM 55.0585 -14.3780 124° Southeast  Level FlightAware Approximate
Sat 02:44:00 PM 54.9808 -14.1794 124° Southeast  Level FlightAware Approximate
Sat 02:45:00 PM 54.9028 -13.9815 124° Southeast  Level FlightAware Approximate
Sat 02:46:00 PM 54.8246 -13.7843 124° Southeast  Level FlightAware Approximate
Sat 02:47:00 PM 54.7461 -13.5878 125° Southeast  Level FlightAware Approximate
Sat 02:48:00 PM 54.6673 -13.3921 125° Southeast  Level FlightAware Approximate
Sat 02:49:00 PM 54.5882 -13.1972 125° Southeast  Level FlightAware Approximate
Sat 02:50:00 PM 54.5087 -13.0030 125° Southeast  Level FlightAware Approximate
Sat 02:51:00 PM 54.4289 -12.8096 125° Southeast  Level FlightAware Approximate
Sat 02:52:00 PM 54.3489 -12.6169 125° Southeast  Level FlightAware Approximate
Sat 02:53:00 PM 54.2690 -12.4244 125° Southeast  Level FlightAware Approximate
Sat 02:54:00 PM 54.1895 -12.2317 125° Southeast  Level FlightAware Approximate
Sat 02:55:00 PM 54.1128 -12.0421 130° Southeast  Level FlightAware Approximate
Sat 02:56:00 PM 54.0234 -11.8633 130° Southeast  Level FlightAware Approximate
Sat 02:57:00 PM 53.9403 -11.6765 126° Southeast  Level FlightAware Approximate
Sat 02:58:00 PM 53.8592 -11.4873 126° Southeast  Level FlightAware Approximate
Sat 02:59:00 PM 53.7816 -11.2947 119° Southeast  Level FlightAware Approximate
Sat 03:00:00 PM 53.6977 -11.1107 123° Southeast  Level FlightAware Approximate
Sat 03:01:00 PM 53.6227 -10.9156 123° Southeast  Level FlightAware Approximate
Sat 03:02:00 PM 53.5368 -10.7341 128° Southeast  Level FlightAware Approximate
Sat 03:03:00 PM 53.4512 -10.5526 128° Southeast  Level FlightAware Approximate
Sat 03:04:00 PM 53.3677 -10.3686 127° Southeast  Level FlightAware Approximate
Sat 03:05:00 PM 53.2840 -10.1853 127° Southeast  Level FlightAware Approximate
Sat 03:06:00 PM 53.2000 -10.0027 127° Southeast  Level FlightAware Approximate
Sat 03:07:00 PM 53.1160 -9.8205 127° Southeast  Level FlightAware Approximate
Sat 03:08:00 PM 53.0333 -9.6369 126° Southeast  Level FlightAware Approximate
Sat 03:09:00 PM 52.9513 -9.4529 126° Southeast  Level FlightAware Approximate
Sat 03:10:00 PM 52.8676 -9.2713 127° Southeast  Level FlightAware Approximate
Sat 03:11:00 PM 52.7832 -9.0941 125° Southeast  Level FlightAware Approximate
Sat 03:12:00 PM 52.7000 -8.9167 130° Southeast  Level FlightAware Approximate
Sat 03:13:00 PM 52.7020 -8.9248 130° Southeast  Level Estimated
Sat 03:14:00 PM 52.7000 -8.9167 130° Southeast  Level FlightAware Approximate
Sat 03:15:00 PM 52.7020 -8.9248 130° Southeast  Level Estimated
Sat 03:16:00 PM 52.7000 -8.9167 130° Southeast  Level FlightAware Approximate
Sat 03:17:00 PM 52.7020 -8.9248 130° Southeast  Level Estimated
Sat 03:18:00 PM 52.7000 -8.9167 130° Southeast  Level FlightAware Approximate
Sat 03:19:00 PM 52.7020 -8.9248 130° Southeast  Level Estimated
Sat 03:20:00 PM 52.7000 -8.9167 130° Southeast  Level FlightAware Approximate
Sat 03:21:00 PM 52.7020 -8.9248 130° Southeast  Level Estimated
Sat 03:22:00 PM 52.7000 -8.9167 130° Southeast  Level FlightAware Approximate
Sat 03:23:00 PM 52.7020 -8.9248 130° Southeast  Level Estimated
Sat 03:24:00 PM 52.7000 -8.9167 130° Southeast  Level FlightAware Approximate
Sat 03:25:00 PM 52.7020 -8.9248 130° Southeast  Level Estimated
Sat 03:26:00 PM 52.7000 -8.9167 130° Southeast  Level FlightAware Approximate
Sat 03:27:00 PM 52.7020 -8.9248 130° Southeast  Level Estimated
Sat 03:28:00 PM 52.7000 -8.9167 130° Southeast  Level FlightAware Approximate
Sat 03:29:00 PM 52.7020 -8.9248 130° Southeast  Level Estimated
Sat 03:30:00 PM 52.7000 -8.9167 130° Southeast  Level FlightAware Approximate
Sat 03:31:00 PM 52.7020 -8.9248 130° Southeast  Level Estimated
Sat 03:32:00 PM 52.7000 -8.9167 130° Southeast  Level FlightAware Approximate
Sat 03:33:00 PM 52.7020 -8.9248 130° Southeast  Level Estimated
Sat 03:34:00 PM 52.7000 -8.9167 130° Southeast  Level FlightAware Approximate
Sat 03:35:00 PM 52.7020 -8.9248 130° Southeast  Level Estimated
Sat 03:36:00 PM 52.7000 -8.9167 130° Southeast  Level FlightAware Approximate
Sat 03:37:00 PM 52.7020 -8.9248 130° Southeast  Level Estimated
Sat 03:59:26 PM 52.5766 -8.6623 130° Southeast 1 1 14,300  Level FlightAware UK
Sat 03:59:56 PM 52.5650 -8.5864 104° East 1 1 15,700 2,600 Climbing FlightAware UK
Sat 04:00:26 PM 52.5538 -8.5097 103° East 1 1 16,900 2,500 Climbing FlightAware UK
Sat 04:00:56 PM 52.5429 -8.4305 103° East 1 1 18,200 2,500 Climbing FlightAware UK
Sat 04:01:26 PM 52.5305 -8.3445 103° East 1 1 19,400 2,500 Climbing FlightAware UK
Sat 04:01:56 PM 52.5174 -8.2547 103° East 368 423 20,700 2,500 Climbing FlightAware UK
Sat 04:02:26 PM 52.5041 -8.1661 104° East 370 426 21,900 2,300 Climbing FlightAware UK
Sat 04:02:56 PM 52.4908 -8.0763 104° East 380 437 23,000 2,100 Climbing FlightAware UK
Sat 04:03:26 PM 52.4766 -7.9829 104° East 388 447 24,000 2,000 Climbing FlightAware UK
Sat 04:03:56 PM 52.4626 -7.8892 104° East 398 458 25,000 2,000 Climbing FlightAware UK
Sat 04:04:26 PM 52.4486 -7.7950 104° East 402 463 26,000 2,000 Climbing FlightAware UK
Sat 04:04:56 PM 52.4341 -7.6996 104° East 408 470 27,000 2,000 Climbing FlightAware UK
Sat 04:05:26 PM 52.4194 -7.6036 104° East 414 476 28,000 2,000 Climbing FlightAware UK
Sat 04:05:56 PM 52.4052 -7.5051 103° East 416 479 29,000 1,800 Climbing FlightAware UK
Sat 04:06:26 PM 52.3902 -7.4078 104° East 422 486 29,800 1,500 Climbing FlightAware UK
Sat 04:06:56 PM 52.3751 -7.3103 104° East 426 490 30,500 1,500 Climbing FlightAware UK
Sat 04:07:26 PM 52.3601 -7.2129 104° East 428 493 31,300 1,475 Climbing FlightAware UK
Sat 04:07:57 PM 52.3444 -7.1143 105° East 430 495 32,000 1,475 Climbing FlightAware UK
Sat 04:08:27 PM 52.3286 -7.0161 105° East 430 495 32,800 1,400 Climbing FlightAware UK
Sat 04:08:57 PM 52.3128 -6.9180 105° East 426 490 33,400 1,100 Climbing FlightAware UK
Sat 04:09:27 PM 52.2969 -6.8197 105° East 430 495 33,900 1,000 Climbing FlightAware UK
Sat 04:09:57 PM 52.2810 -6.7207 105° East 432 497 34,400 1,000 Climbing FlightAware UK
Sat 04:10:27 PM 52.2646 -6.6205 105° East 434 499 34,900 1,000 Climbing FlightAware UK
Sat 04:10:57 PM 52.2481 -6.5205 105° East 434 499 35,400 1,000 Climbing FlightAware UK
Sat 04:11:27 PM 52.2316 -6.4206 105° East 434 499 35,900 1,000 Climbing FlightAware UK
Sat 04:11:57 PM 52.2151 -6.3209 105° East 436 502 36,400 1,000 Climbing FlightAware UK
Sat 04:12:27 PM 52.1985 -6.2214 105° East 438 504 36,900 1,000 Climbing FlightAware UK
Sat 04:12:57 PM 52.1820 -6.1225 105° East 434 499 37,400 1,000 Climbing FlightAware UK
Sat 04:13:27 PM 52.1653 -6.0247 106° East 424 488 37,900 900 Climbing FlightAware UK
Sat 04:13:57 PM 52.1486 -5.9274 106° East 414 476 38,300 600 Climbing FlightAware UK
Sat 04:14:27 PM 52.1311 -5.8307 106° East 418 481 38,500 500 Climbing FlightAware UK
Sat 04:14:57 PM 52.1133 -5.7333 107° East 418 481 38,800 500 Climbing FlightAware UK
Sat 04:15:27 PM 52.0957 -5.6351 106° East 424 488 39,000 200 Climbing FlightAware UK
Sat 04:15:57 PM 52.0770 -5.5349 107° East 432 497 39,000  Level FlightAware UK
Sat 04:16:27 PM 52.0583 -5.4324 107° East 440 506 39,000  Level FlightAware UK
Sat 04:16:57 PM 52.0393 -5.3292 107° East 448 516 39,000  Level FlightAware UK
Sat 04:17:27 PM 52.0199 -5.2250 107° East 456 525 39,000  Level FlightAware UK
Sat 04:17:57 PM 52.0003 -5.1198 107° East 460 529 39,000  Level FlightAware UK
Sat 04:18:27 PM 51.9804 -5.0139 107° East 462 532 39,000  Level FlightAware UK
Sat 04:18:57 PM 51.9604 -4.9080 107° East 462 532 39,000  Level FlightAware UK
Sat 04:19:27 PM 51.9401 -4.8020 107° East 462 532 39,000  Level FlightAware UK
Sat 04:19:57 PM 51.9196 -4.6951 107° East 462 532 39,000  Level FlightAware UK
Sat 04:20:27 PM 51.8992 -4.5889 107° East 464 534 39,000  Level FlightAware UK
Sat 04:20:57 PM 51.8788 -4.4830 107° East 466 536 39,000  Level FlightAware UK
Sat 04:21:27 PM 51.8581 -4.3767 107° East 466 536 39,000  Level FlightAware UK
Sat 04:22:03 PM 51.8335 -4.2513 108° East 464 534 39,000  Level FlightAware UK
Sat 04:22:33 PM 51.8128 -4.1458 108° East 460 529 39,000  Level FlightAware UK

Login

Don't have an account? Register now (free) for customized features, flight alerts, and more!